HST,Max TemperatureF,Mean TemperatureF,Min TemperatureF,Max Dew PointF,MeanDew PointF,Min DewpointF,Max Humidity, Mean Humidity, Min Humidity, Max Sea Level PressureIn, Mean Sea Level PressureIn, Min Sea Level PressureIn, Max VisibilityMiles, Mean VisibilityMiles, Min VisibilityMiles, Max Wind SpeedMPH, Mean Wind SpeedMPH, Max Gust SpeedMPH,PrecipitationIn, CloudCover, Events, WindDirDegrees
2012-8-1,83,77,71,72,69,67,90,76,62,30.11,30.07,30.04,10,10,9,13,5,15,T,8,Rain,233
2012-8-2,83,77,70,69,67,65,90,73,55,30.11,30.07,30.03,10,10,6,15,5,20,T,7,Rain,194
2012-8-3,83,75,67,68,66,63,90,74,58,30.11,30.07,30.03,10,10,10,14,6,18,T,6,,178
2012-8-4,83,77,70,70,67,66,90,79,67,30.10,30.06,30.01,10,9,2,16,5,21,0.09,8,Rain,237
2012-8-5,84,77,69,70,68,65,90,77,63,30.10,30.05,30.00,10,8,2,12,5,14,T,8,Rain,266
2012-8-6,81,75,69,70,67,65,97,80,62,30.09,30.06,30.02,10,8,2,10,6,14,0.43,7,Rain,236
2012-8-7,83,76,68,68,66,61,90,74,58,30.10,30.07,30.01,10,10,10,17,6,22,T,7,,121
2012-8-8,82,76,70,70,67,64,90,76,62,30.12,30.08,30.04,10,10,7,14,5,16,0.03,7,Rain,287
2012-8-9,83,76,69,73,70,64,93,79,65,30.14,30.10,30.06,10,7,2,12,4,20,0.04,8,Rain,301
2012-8-10,83,76,69,71,67,63,93,76,58,30.11,30.06,30.00,10,10,5,16,5,21,0.00,7,Rain,353
2012-8-11,83,76,68,70,68,66,90,76,62,30.05,30.02,29.97,10,8,2,14,6,17,0.09,7,Rain,253
2012-8-12,84,77,70,70,69,66,97,79,61,30.08,30.02,29.98,10,9,2,15,5,20,0.07,7,Rain,69
2012-8-13,83,77,71,73,70,67,93,80,67,30.09,30.04,30.00,10,7,1,15,5,18,0.07,8,Rain,349
2012-8-14,84,77,70,70,68,65,97,76,55,30.08,30.05,29.98,10,9,1,15,8,18,0.13,7,Rain,8
2012-8-15,82,76,70,71,68,66,90,76,62,30.05,30.01,29.96,10,9,2,16,6,21,0.11,7,Rain,35
2012-8-16,82,75,68,69,67,62,97,80,62,30.07,30.03,29.99,10,9,2,16,7,20,0.31,6,Rain,344
2012-8-17,85,78,70,66,65,63,90,71,51,30.07,30.04,30.00,10,10,10,13,7,18,T,5,,335
2012-8-18,83,76,68,69,65,58,78,70,61,30.05,30.00,29.95,10,10,10,15,7,23,T,6,Rain,302
2012-8-19,84,76,68,72,69,63,90,74,58,30.03,30.00,29.97,10,8,1,16,6,21,0.01,7,Rain,105
2012-8-20,83,77,70,72,71,66,97,83,69,30.08,30.03,29.99,10,7,2,15,5,18,0.96,7,Rain,128
2012-8-21,83,76,69,70,68,66,97,78,58,30.11,30.07,30.04,10,8,2,13,6,16,0.21,6,Rain,282
2012-8-22,84,76,68,72,68,65,90,78,65,30.10,30.07,30.04,10,9,2,14,5,18,0.02,7,Rain,219
2012-8-23,84,76,68,71,68,63,90,74,58,30.11,30.07,30.02,10,10,5,17,6,22,0.02,5,Rain,187
2012-8-24,85,76,67,69,66,60,81,68,55,30.12,30.08,30.03,10,10,10,15,8,18,0.02,3,Rain,166
2012-8-25,84,76,67,68,65,61,87,73,58,30.12,30.08,30.04,10,10,10,16,8,20,0.00,3,,331
2012-8-26,83,76,68,69,66,64,90,74,58,30.09,30.06,30.01,10,9,1,13,7,16,0.53,6,Rain,320
2012-8-27,83,75,67,68,66,64,93,76,58,30.07,30.03,29.99,10,10,3,13,6,16,0.10,5,Rain,328
2012-8-28,83,75,67,70,67,65,93,76,58,30.06,30.03,30.00,10,9,2,18,6,21,0.07,7,Rain,277
2012-8-29,79,74,69,72,68,66,97,87,76,30.08,30.04,30.00,10,8,2,14,4,16,0.41,8,Rain,234
2012-8-30,81,75,68,70,67,62,97,82,67,30.09,30.04,30.00,10,8,2,14,7,17,0.09,7,Rain,253
2012-8-31,83,76,69,69,68,65,97,78,58,30.12,30.08,30.03,10,10,4,14,6,18,0.08,7,Rain,266